createdAt,value
2022-11-24T00:02:09.212Z,100.00
2022-11-24T00:04:35.979Z,99.66
2022-11-24T00:07:02.684Z,99.91
2022-11-24T00:09:29.176Z,99.91
2022-11-24T00:11:56.989Z,99.36
2022-11-24T00:14:23.447Z,98.00
2022-11-24T00:16:50.077Z,98.76
2022-11-24T00:19:19.731Z,98.15
2022-11-24T00:21:46.555Z,98.44
2022-11-24T00:24:13.044Z,97.86
2022-11-24T00:26:39.557Z,98.50
2022-11-24T00:29:07.803Z,97.41
2022-11-24T00:31:36.050Z,97.62
2022-11-24T00:34:04.853Z,97.68
2022-11-24T00:36:33.207Z,97.24
2022-11-24T00:39:00.729Z,96.97
2022-11-24T00:41:28.462Z,97.61
2022-11-24T00:43:55.548Z,97.82
2022-11-24T00:46:23.977Z,97.14
2022-11-24T00:48:51.019Z,97.45
2022-11-24T00:51:18.853Z,96.75
2022-11-24T00:53:45.368Z,97.69
2022-11-24T00:56:12.072Z,97.26
2022-11-24T00:58:38.717Z,97.31
2022-11-24T01:01:07.694Z,96.89
2022-11-24T01:03:35.628Z,97.41
2022-11-24T01:06:03.602Z,97.15
2022-11-24T01:08:30.068Z,97.11
2022-11-24T01:11:06.793Z,97.63
2022-11-24T01:13:33.309Z,97.63
2022-11-24T01:15:59.861Z,97.24
2022-11-24T01:18:26.437Z,97.49
2022-11-24T01:20:54.370Z,97.10
2022-11-24T01:23:20.873Z,96.91
2022-11-24T01:25:47.330Z,96.73
2022-11-24T01:28:13.837Z,97.13
2022-11-24T01:30:40.353Z,97.59
2022-11-24T01:33:06.979Z,97.06
2022-11-24T01:35:33.502Z,97.27
2022-11-24T01:38:01.321Z,97.25
2022-11-24T01:40:27.774Z,97.05
2022-11-24T01:42:54.246Z,97.69
2022-11-24T01:45:31.301Z,98.11
2022-11-24T01:47:58.905Z,98.33
2022-11-24T01:50:25.663Z,99.27
2022-11-24T01:52:55.138Z,99.33
2022-11-24T01:55:27.489Z,99.76
2022-11-24T01:57:58.718Z,100.00
2022-11-24T02:00:25.536Z,100.00
2022-11-24T02:02:53.274Z,100.00
2022-11-24T02:05:24.313Z,100.00
2022-11-24T02:07:53.865Z,100.00
2022-11-24T02:10:21.605Z,100.00
2022-11-24T02:12:52.162Z,100.00
2022-11-24T02:15:19.881Z,100.00
2022-11-24T02:17:46.573Z,100.00
2022-11-24T02:20:14.245Z,100.00
2022-11-24T02:22:48.538Z,100.00
2022-11-24T02:25:25.218Z,100.00
2022-11-24T02:27:54.461Z,100.00
2022-11-24T02:30:21.234Z,100.00
2022-11-24T02:32:47.710Z,100.00
2022-11-24T02:35:14.651Z,100.00
2022-11-24T02:37:41.186Z,100.00
2022-11-24T02:40:09.218Z,100.00
2022-11-24T02:42:39.318Z,100.00
2022-11-24T02:45:09.606Z,100.00
2022-11-24T02:47:36.065Z,100.00
2022-11-24T02:50:02.577Z,100.00
2022-11-24T02:52:29.074Z,100.00
2022-11-24T02:54:55.549Z,100.00
2022-11-24T02:57:22.499Z,100.00
2022-11-24T02:59:48.975Z,100.00
2022-11-24T03:02:16.820Z,100.00
2022-11-24T03:04:43.327Z,100.00
2022-11-24T03:07:09.980Z,100.00
2022-11-24T03:09:36.501Z,100.00
2022-11-24T03:12:03.092Z,100.00
2022-11-24T03:14:29.606Z,100.00
2022-11-24T03:16:56.036Z,100.00
2022-11-24T03:19:24.100Z,100.00
2022-11-24T03:21:50.620Z,100.00
2022-11-24T03:24:17.115Z,100.00
2022-11-24T03:26:43.555Z,100.00
2022-11-24T03:29:10.169Z,100.00
2022-11-24T03:31:36.714Z,100.00
2022-11-24T03:34:03.282Z,100.00
2022-11-24T03:36:31.123Z,100.00
2022-11-24T03:38:57.574Z,100.00
2022-11-24T03:41:24.041Z,100.00
2022-11-24T03:43:50.589Z,100.00
2022-11-24T03:46:17.630Z,100.00
2022-11-24T03:48:44.156Z,100.00
2022-11-24T03:51:11.212Z,100.00
2022-11-24T03:53:39.123Z,100.00
2022-11-24T03:56:06.044Z,100.00
2022-11-24T03:58:32.696Z,100.00
2022-11-24T04:00:59.336Z,100.00
2022-11-24T04:03:26.348Z,100.00
2022-11-24T04:05:52.830Z,100.00
2022-11-24T04:08:19.707Z,100.00
2022-11-24T04:10:51.639Z,100.00
2022-11-24T04:13:20.001Z,100.00
2022-11-24T04:15:46.492Z,100.00
2022-11-24T04:18:13.253Z,100.00
2022-11-24T04:20:40.867Z,100.00
2022-11-24T04:23:08.012Z,100.00
2022-11-24T04:25:34.934Z,100.00
2022-11-24T04:28:03.166Z,100.00
2022-11-24T04:30:29.925Z,100.00
2022-11-24T04:32:56.415Z,100.00
2022-11-24T04:35:23.011Z,99.95
2022-11-24T04:37:49.481Z,99.78
2022-11-24T04:40:16.853Z,100.00
2022-11-24T04:42:43.450Z,99.27
2022-11-24T04:45:11.717Z,99.51
2022-11-24T04:47:38.194Z,98.91
2022-11-24T04:50:05.555Z,98.67
2022-11-24T04:52:32.124Z,98.19
2022-11-24T04:54:58.668Z,97.89
2022-11-24T04:57:26.178Z,97.59
2022-11-24T04:59:53.387Z,97.09
2022-11-24T05:02:21.856Z,97.66
2022-11-24T05:04:48.728Z,97.66
2022-11-24T05:07:19.157Z,97.57
2022-11-24T05:09:58.784Z,97.45
2022-11-24T05:12:27.275Z,97.52
2022-11-24T05:14:53.802Z,97.57
2022-11-24T05:17:21.676Z,97.35
2022-11-24T05:19:48.131Z,97.70
2022-11-24T05:22:14.573Z,97.93
2022-11-24T05:24:41.048Z,98.12
2022-11-24T05:27:07.509Z,98.45
2022-11-24T05:29:33.991Z,98.50
2022-11-24T05:32:00.465Z,97.99
2022-11-24T05:34:28.301Z,98.60
2022-11-24T05:36:54.758Z,98.89
2022-11-24T05:39:21.523Z,98.77
2022-11-24T05:41:47.951Z,98.24
2022-11-24T05:44:14.429Z,99.08
2022-11-24T05:46:40.970Z,98.94
2022-11-24T05:49:07.472Z,99.62
2022-11-24T05:51:35.255Z,99.29
2022-11-24T05:54:01.707Z,99.01
2022-11-24T05:56:28.185Z,99.36
2022-11-24T05:58:54.627Z,98.25
2022-11-24T06:01:21.176Z,97.73
2022-11-24T06:03:47.712Z,96.36
2022-11-24T06:06:14.232Z,96.56
2022-11-24T06:08:42.076Z,96.96
2022-11-24T06:11:09.199Z,96.58
2022-11-24T06:13:35.724Z,96.11
2022-11-24T06:16:02.512Z,96.35
2022-11-24T06:18:29.020Z,97.66
2022-11-24T06:21:10.339Z,98.10
2022-11-24T06:23:37.911Z,96.58
2022-11-24T06:26:06.253Z,96.81
2022-11-24T06:28:32.797Z,95.60
2022-11-24T06:31:02.828Z,95.18
2022-11-24T06:33:33.080Z,94.98
2022-11-24T06:36:01.112Z,95.84
2022-11-24T06:38:27.588Z,96.50
2022-11-24T06:40:58.776Z,97.00
2022-11-24T06:43:27.964Z,97.27
2022-11-24T06:45:54.394Z,97.49
2022-11-24T06:48:21.173Z,97.75
2022-11-24T06:50:47.673Z,97.57
2022-11-24T06:53:14.167Z,97.71
2022-11-24T06:55:41.432Z,97.33
2022-11-24T06:58:08.397Z,96.56
2022-11-24T07:00:36.408Z,96.36
2022-11-24T07:03:12.785Z,96.46
2022-11-24T07:05:42.010Z,96.92
2022-11-24T07:08:11.980Z,97.07
2022-11-24T07:10:41.318Z,97.67
2022-11-24T07:13:08.404Z,97.81
2022-11-24T07:15:36.826Z,97.37
2022-11-24T07:18:03.478Z,97.76
2022-11-24T07:20:29.985Z,97.54
2022-11-24T07:22:56.585Z,97.92
2022-11-24T07:25:25.422Z,98.22
2022-11-24T07:27:55.903Z,97.72
2022-11-24T07:30:22.438Z,98.57
2022-11-24T07:32:50.314Z,98.21
2022-11-24T07:35:16.810Z,98.40
2022-11-24T07:37:43.366Z,98.77
2022-11-24T07:40:11.286Z,98.61
2022-11-24T07:42:37.738Z,98.94
2022-11-24T07:45:04.947Z,98.31
2022-11-24T07:47:31.390Z,98.06
2022-11-24T07:49:59.204Z,98.71
2022-11-24T07:52:25.710Z,98.64
2022-11-24T07:54:52.269Z,99.27
2022-11-24T07:57:18.881Z,98.60
2022-11-24T07:59:45.322Z,98.60
2022-11-24T08:02:13.005Z,98.47
2022-11-24T08:04:39.691Z,98.18
2022-11-24T08:07:07.551Z,98.64
2022-11-24T08:09:34.062Z,98.26
2022-11-24T08:12:00.563Z,97.60
2022-11-24T08:14:27.082Z,97.37
2022-11-24T08:16:53.631Z,97.72
2022-11-24T08:19:21.690Z,97.48
2022-11-24T08:21:48.152Z,97.93
2022-11-24T08:24:16.007Z,98.36
2022-11-24T08:26:43.288Z,98.79
2022-11-24T08:29:10.383Z,98.43
2022-11-24T08:31:39.059Z,97.61
2022-11-24T08:34:06.577Z,95.98
2022-11-24T08:36:34.198Z,89.31
2022-11-24T08:39:01.137Z,83.91
2022-11-24T08:41:30.100Z,82.64
2022-11-24T08:43:56.590Z,80.74
2022-11-24T08:46:23.294Z,84.27
2022-11-24T08:48:50.923Z,85.23
2022-11-24T08:51:19.721Z,83.07
2022-11-24T08:53:46.612Z,85.16
2022-11-24T08:56:13.727Z,85.85
2022-11-24T08:58:41.985Z,87.30
2022-11-24T09:01:10.985Z,88.29
2022-11-24T09:03:38.435Z,88.98
2022-11-24T09:06:05.823Z,89.22
2022-11-24T09:08:33.483Z,89.44
2022-11-24T09:11:00.891Z,88.63
2022-11-24T09:13:28.027Z,88.75
2022-11-24T09:15:57.282Z,87.68
2022-11-24T09:18:27.571Z,88.31
2022-11-24T09:21:06.229Z,89.27
2022-11-24T09:23:32.835Z,90.12
2022-11-24T09:26:03.887Z,90.15
2022-11-24T09:28:30.379Z,90.63
2022-11-24T09:31:01.923Z,90.44
2022-11-24T09:33:28.683Z,90.76
2022-11-24T09:35:55.332Z,89.45
2022-11-24T09:38:21.776Z,86.10
2022-11-24T09:40:48.492Z,83.97
2022-11-24T09:43:22.052Z,81.50
2022-11-24T09:46:05.636Z,79.06
2022-11-24T09:48:39.056Z,77.84
2022-11-24T09:51:10.015Z,74.80
2022-11-24T09:53:41.038Z,74.07
2022-11-24T09:56:18.539Z,71.01
2022-11-24T09:58:48.430Z,68.77
2022-11-24T10:01:17.156Z,68.86
2022-11-24T10:03:48.378Z,65.56
2022-11-24T10:06:24.469Z,65.91
2022-11-24T10:09:29.589Z,64.12
2022-11-24T10:12:06.168Z,62.53
2022-11-24T10:15:16.894Z,63.42
2022-11-24T10:18:00.083Z,61.97
2022-11-24T10:20:43.075Z,60.33
2022-11-24T10:23:26.038Z,62.83
2022-11-24T10:25:57.227Z,63.51
2022-11-24T10:28:27.108Z,63.94
2022-11-24T10:31:10.894Z,65.92
2022-11-24T10:33:37.787Z,64.55
2022-11-24T10:36:12.911Z,66.33
2022-11-24T10:38:45.366Z,63.75
2022-11-24T10:41:16.532Z,63.13
2022-11-24T10:43:43.342Z,63.39
2022-11-24T10:46:14.465Z,62.58
2022-11-24T10:48:46.673Z,61.70
2022-11-24T10:51:36.382Z,61.34
2022-11-24T10:54:10.573Z,60.47
2022-11-24T10:56:40.309Z,60.46
2022-11-24T10:59:32.217Z,61.31
2022-11-24T11:01:59.828Z,62.76
2022-11-24T11:04:29.065Z,63.44
2022-11-24T11:07:16.820Z,64.77
2022-11-24T11:09:43.829Z,66.87
2022-11-24T11:12:42.212Z,69.64
2022-11-24T11:15:21.897Z,71.25
2022-11-24T11:17:49.342Z,72.14
2022-11-24T11:20:18.991Z,73.31
2022-11-24T11:22:49.066Z,74.63
2022-11-24T11:25:21.795Z,76.71
2022-11-24T11:27:48.945Z,76.82
2022-11-24T11:36:10.148Z,77.67
2022-11-24T11:38:39.564Z,78.31
2022-11-24T11:41:10.721Z,78.42
2022-11-24T11:43:40.501Z,78.92
2022-11-24T11:46:12.564Z,79.38
2022-11-24T11:48:44.164Z,80.08
2022-11-24T11:51:41.698Z,78.97
2022-11-24T11:54:18.354Z,79.38
2022-11-24T11:56:47.989Z,79.66
2022-11-24T11:59:30.697Z,80.32
2022-11-24T12:02:31.214Z,80.73
2022-11-24T12:05:01.023Z,81.09
2022-11-24T12:07:43.526Z,79.34
2022-11-24T12:10:23.066Z,79.96
2022-11-24T12:13:07.871Z,80.81
2022-11-24T12:15:41.559Z,79.93
2022-11-24T12:18:48.638Z,79.95
2022-11-24T12:21:17.932Z,79.88
2022-11-24T12:23:58.630Z,79.52
2022-11-24T12:26:34.932Z,80.31
2022-11-24T12:29:25.026Z,80.57
2022-11-24T12:32:03.518Z,80.13
2022-11-24T12:34:43.410Z,79.46
2022-11-24T12:37:28.638Z,80.55
2022-11-24T12:40:01.550Z,79.93
2022-11-24T12:42:39.023Z,81.25
2022-11-24T12:45:14.272Z,81.29
2022-11-24T12:47:57.046Z,81.13
2022-11-24T12:50:27.687Z,81.38
2022-11-24T12:52:59.495Z,81.59
2022-11-24T12:55:27.504Z,81.18
2022-11-24T12:58:09.353Z,81.75
2022-11-24T13:00:48.939Z,82.25
2022-11-24T13:03:30.766Z,81.79
2022-11-24T13:06:01.362Z,81.73
2022-11-24T13:08:29.590Z,81.70
2022-11-24T13:11:34.566Z,81.20
2022-11-24T13:14:06.432Z,81.01
2022-11-24T13:16:38.768Z,81.80
2022-11-24T13:19:19.483Z,81.92
2022-11-24T13:21:49.429Z,80.59
2022-11-24T13:24:25.263Z,81.08
2022-11-24T13:26:53.722Z,81.07
2022-11-24T13:29:33.575Z,81.61
2022-11-24T13:32:49.393Z,81.50
2022-11-24T13:35:16.001Z,81.03
2022-11-24T13:37:47.845Z,80.75
2022-11-24T13:40:59.820Z,81.13
2022-11-24T13:43:30.850Z,81.05
2022-11-24T13:45:58.779Z,80.49
2022-11-24T13:48:52.433Z,79.92
2022-11-24T13:51:23.198Z,79.46
2022-11-24T13:53:52.643Z,80.48
2022-11-24T13:56:28.553Z,79.57
2022-11-24T13:58:58.337Z,80.70
2022-11-24T14:01:27.601Z,79.93
2022-11-24T14:04:29.442Z,79.94
2022-11-24T14:06:48.912Z,80.27
2022-11-24T14:09:23.894Z,79.65
2022-11-24T14:11:58.202Z,79.47
2022-11-24T14:14:25.611Z,80.14
2022-11-24T14:17:15.386Z,79.26
2022-11-24T14:19:44.497Z,80.17
2022-11-24T14:22:18.312Z,80.82
2022-11-24T14:24:46.656Z,79.79
2022-11-24T14:27:17.151Z,79.61
2022-11-24T14:29:55.180Z,79.91
2022-11-24T14:32:25.670Z,79.86
2022-11-24T14:34:52.492Z,80.21
2022-11-24T14:37:21.793Z,78.90
2022-11-24T14:39:50.729Z,79.94
2022-11-24T14:42:20.424Z,80.90
2022-11-24T14:44:51.789Z,80.48
2022-11-24T14:47:30.533Z,80.60
2022-11-24T14:50:12.954Z,80.42
2022-11-24T14:52:52.488Z,81.29
2022-11-24T14:55:28.125Z,81.80
2022-11-24T14:57:55.014Z,82.88
2022-11-24T15:00:27.465Z,83.36
2022-11-24T15:03:12.457Z,83.93
2022-11-24T15:05:54.440Z,82.53
2022-11-24T15:08:22.288Z,82.05
2022-11-24T15:10:57.749Z,83.44
2022-11-24T15:13:28.353Z,83.16
2022-11-24T15:16:02.420Z,83.64
2022-11-24T15:18:37.350Z,83.32
2022-11-24T15:21:07.366Z,84.02
2022-11-24T15:23:38.974Z,84.00
2022-11-24T15:26:30.565Z,84.06
2022-11-24T15:29:01.282Z,84.38
2022-11-24T15:31:32.033Z,84.68
2022-11-24T15:34:00.039Z,84.96
2022-11-24T15:36:26.607Z,85.32
2022-11-24T15:38:58.054Z,85.50
2022-11-24T15:41:28.577Z,85.64
2022-11-24T15:43:55.342Z,85.71
2022-11-24T15:46:22.703Z,86.38
2022-11-24T15:48:49.179Z,86.59
2022-11-24T15:51:24.647Z,87.11
2022-11-24T15:54:00.075Z,87.69
2022-11-24T15:56:30.737Z,86.87
2022-11-24T15:59:02.458Z,87.28
2022-11-24T16:01:31.496Z,87.41
2022-11-24T16:03:58.036Z,87.44
2022-11-24T16:06:26.152Z,88.00
2022-11-24T16:08:53.012Z,87.66
2022-11-24T16:11:35.070Z,87.88
2022-11-24T16:14:01.833Z,87.73
2022-11-24T16:16:28.562Z,88.00
2022-11-24T16:18:55.172Z,88.02
2022-11-24T16:21:21.701Z,87.87
2022-11-24T16:23:52.617Z,88.01
2022-11-24T16:26:22.050Z,88.15
2022-11-24T16:28:48.755Z,88.66
2022-11-24T16:31:15.563Z,88.00
2022-11-24T16:33:45.755Z,88.58
2022-11-24T16:36:12.803Z,88.51
2022-11-24T16:38:42.168Z,88.42
2022-11-24T16:41:09.986Z,88.48
2022-11-24T16:43:40.910Z,88.74
2022-11-24T16:46:17.678Z,88.88
2022-11-24T16:48:44.759Z,88.69
2022-11-24T16:51:12.236Z,88.26
2022-11-24T16:53:38.784Z,88.45
2022-11-24T16:56:06.227Z,87.82
2022-11-24T16:58:37.071Z,87.90
2022-11-24T17:01:04.186Z,87.90
2022-11-24T17:03:31.054Z,87.91
2022-11-24T17:05:58.946Z,86.76
2022-11-24T17:08:25.504Z,86.87
2022-11-24T17:10:52.419Z,86.72
2022-11-24T17:13:18.905Z,86.90
2022-11-24T17:15:52.594Z,87.10
2022-11-24T17:18:25.151Z,87.40
2022-11-24T17:20:52.275Z,86.92
2022-11-24T17:23:18.832Z,86.72
2022-11-24T17:25:45.307Z,86.71
2022-11-24T17:28:11.771Z,86.35
2022-11-24T17:30:38.248Z,86.34
2022-11-24T17:33:06.523Z,86.72
2022-11-24T17:35:34.686Z,86.64
2022-11-24T17:38:01.193Z,87.28
2022-11-24T17:40:29.227Z,87.16
2022-11-24T17:42:57.665Z,87.30
2022-11-24T17:45:24.305Z,87.67
2022-11-24T17:47:50.781Z,87.55
2022-11-24T17:50:22.555Z,87.51
2022-11-24T17:52:52.128Z,87.75
2022-11-24T17:55:18.623Z,88.04
2022-11-24T17:57:45.073Z,88.46
2022-11-24T18:00:12.929Z,88.86
2022-11-24T18:02:39.438Z,89.22
2022-11-24T18:05:06.399Z,88.57
2022-11-24T18:07:36.224Z,88.85
2022-11-24T18:10:02.862Z,89.25
2022-11-24T18:12:29.397Z,89.38
2022-11-24T18:14:55.883Z,89.80
2022-11-24T18:17:22.514Z,89.71
2022-11-24T18:19:48.989Z,90.15
2022-11-24T18:22:16.077Z,89.87
2022-11-24T18:24:44.010Z,89.87
2022-11-24T18:27:10.443Z,90.38
2022-11-24T18:29:36.898Z,90.37
2022-11-24T18:32:03.703Z,90.75
2022-11-24T18:34:30.273Z,91.32
2022-11-24T18:36:56.761Z,90.96
2022-11-24T18:39:23.272Z,91.59
2022-11-24T18:41:51.101Z,91.32
2022-11-24T18:44:17.676Z,91.50
2022-11-24T18:46:44.221Z,91.32
2022-11-24T18:49:10.657Z,90.79
2022-11-24T18:51:37.121Z,91.03
2022-11-24T18:54:04.121Z,91.29
2022-11-24T18:56:30.696Z,91.43
2022-11-24T18:58:58.512Z,91.48
2022-11-24T19:01:27.022Z,91.92
2022-11-24T19:03:55.049Z,91.74
2022-11-24T19:06:23.704Z,91.84
2022-11-24T19:08:53.957Z,91.84
2022-11-24T19:11:22.800Z,91.81
2022-11-24T19:13:49.777Z,91.93
2022-11-24T19:16:18.966Z,92.10
2022-11-24T19:18:48.903Z,92.13
2022-11-24T19:21:20.268Z,92.34
2022-11-24T19:23:46.811Z,92.17
2022-11-24T19:26:14.802Z,93.18
2022-11-24T19:28:41.493Z,94.25
2022-11-24T19:31:11.302Z,95.19
2022-11-24T19:33:39.505Z,95.66
2022-11-24T19:36:08.061Z,95.45
2022-11-24T19:38:35.108Z,96.38
2022-11-24T19:41:02.838Z,96.68
2022-11-24T19:43:30.401Z,97.01
2022-11-24T19:46:00.647Z,97.12
2022-11-24T19:48:30.569Z,96.38
2022-11-24T19:51:06.642Z,96.14
2022-11-24T19:53:33.729Z,95.12
2022-11-24T19:56:03.345Z,93.71
2022-11-24T19:58:30.029Z,93.22
2022-11-24T20:00:56.638Z,92.68
2022-11-24T20:03:23.193Z,92.73
2022-11-24T20:05:54.715Z,93.03
2022-11-24T20:08:22.558Z,92.50
2022-11-24T20:10:49.050Z,92.72
2022-11-24T20:13:15.493Z,92.99
2022-11-24T20:15:41.941Z,93.06
2022-11-24T20:18:08.397Z,93.00
2022-11-24T20:20:34.859Z,92.96
2022-11-24T20:23:01.306Z,93.39
2022-11-24T20:25:29.114Z,93.80
2022-11-24T20:27:55.557Z,94.34
2022-11-24T20:30:22.001Z,95.20
2022-11-24T20:32:48.484Z,95.61
2022-11-24T20:35:18.180Z,96.65
2022-11-24T20:37:45.100Z,97.01
2022-11-24T20:40:12.029Z,97.48
2022-11-24T20:42:39.817Z,98.11
2022-11-24T20:45:07.237Z,98.17
2022-11-24T20:47:33.816Z,98.56
2022-11-24T20:50:00.271Z,98.37
2022-11-24T20:52:26.787Z,98.43
2022-11-24T20:54:53.292Z,99.15
2022-11-24T20:57:19.827Z,99.00
2022-11-24T20:59:47.593Z,99.78
2022-11-24T21:02:14.119Z,99.13
2022-11-24T21:04:40.670Z,99.31
2022-11-24T21:07:07.145Z,99.93
2022-11-24T21:09:33.634Z,100.00
2022-11-24T21:12:00.114Z,100.00
2022-11-24T21:14:30.040Z,100.00
2022-11-24T21:17:00.283Z,100.00
2022-11-24T21:19:26.829Z,100.00
2022-11-24T21:21:53.297Z,100.00
2022-11-24T21:24:19.786Z,100.00
2022-11-24T21:26:46.696Z,100.00
2022-11-24T21:29:14.276Z,100.00
2022-11-24T21:31:41.441Z,100.00
2022-11-24T21:34:09.493Z,100.00
2022-11-24T21:36:36.402Z,100.00
2022-11-24T21:39:03.942Z,100.00
2022-11-24T21:41:33.385Z,100.00
2022-11-24T21:44:00.233Z,100.00
2022-11-24T21:46:28.690Z,100.00
2022-11-24T21:48:55.284Z,100.00
2022-11-24T21:51:23.396Z,100.00
2022-11-24T21:53:49.925Z,100.00
2022-11-24T21:56:18.496Z,100.00
2022-11-24T21:58:45.841Z,100.00
2022-11-24T22:01:12.869Z,100.00
2022-11-24T22:03:39.379Z,100.00
2022-11-24T22:06:06.590Z,100.00
2022-11-24T22:08:34.600Z,100.00
2022-11-24T22:11:02.080Z,100.00
2022-11-24T22:13:28.760Z,100.00
2022-11-24T22:16:00.218Z,100.00
2022-11-24T22:18:30.355Z,100.00
2022-11-24T22:20:56.782Z,100.00
2022-11-24T22:23:23.455Z,100.00
2022-11-24T22:25:51.250Z,100.00
2022-11-24T22:28:17.844Z,100.00
2022-11-24T22:30:44.526Z,100.00
2022-11-24T22:33:10.995Z,100.00
2022-11-24T22:35:37.410Z,100.00
2022-11-24T22:38:03.944Z,100.00
2022-11-24T22:40:30.410Z,100.00
2022-11-24T22:42:59.102Z,100.00
2022-11-24T22:45:25.631Z,100.00
2022-11-24T22:47:53.716Z,100.00
2022-11-24T22:50:20.174Z,100.00
2022-11-24T22:52:46.675Z,100.00
2022-11-24T22:55:13.378Z,100.00
2022-11-24T22:57:39.842Z,100.00
2022-11-24T23:00:09.442Z,100.00
2022-11-24T23:02:35.958Z,100.00
2022-11-24T23:05:02.515Z,100.00
2022-11-24T23:07:29.043Z,100.00
2022-11-24T23:09:55.590Z,100.00
2022-11-24T23:12:22.388Z,100.00
2022-11-24T23:14:51.959Z,100.00
2022-11-24T23:17:19.843Z,100.00
2022-11-24T23:19:46.351Z,100.00
2022-11-24T23:22:12.815Z,100.00
2022-11-24T23:24:39.322Z,100.00
2022-11-24T23:27:05.803Z,100.00
2022-11-24T23:29:32.235Z,100.00
2022-11-24T23:31:58.726Z,100.00
2022-11-24T23:34:26.586Z,100.00
2022-11-24T23:36:53.047Z,100.00
2022-11-24T23:39:19.520Z,100.00
2022-11-24T23:41:45.924Z,100.00
2022-11-24T23:44:12.437Z,100.00
2022-11-24T23:46:38.963Z,100.00
2022-11-24T23:49:05.444Z,100.00
2022-11-24T23:51:33.647Z,100.00
2022-11-24T23:54:00.578Z,100.00
2022-11-24T23:56:28.678Z,100.00
2022-11-24T23:58:55.117Z,100.00
